createdAt,value
2022-07-27T00:02:32.610Z,100.00
2022-07-27T00:07:37.461Z,100.00
2022-07-27T00:12:41.829Z,100.00
2022-07-27T00:17:45.189Z,100.00
2022-07-27T00:22:49.956Z,100.00
2022-07-27T00:27:53.397Z,100.00
2022-07-27T00:32:57.136Z,100.00
2022-07-27T00:38:01.803Z,100.00
2022-07-27T00:43:05.215Z,100.00
2022-07-27T00:48:08.638Z,100.00
2022-07-27T00:53:14.272Z,100.00
2022-07-27T00:58:18.360Z,100.00
2022-07-27T01:03:23.255Z,100.00
2022-07-27T01:08:34.883Z,100.00
2022-07-27T01:13:38.511Z,100.00
2022-07-27T01:18:43.376Z,100.00
2022-07-27T01:23:48.102Z,100.00
2022-07-27T01:28:51.412Z,100.00
2022-07-27T01:33:54.751Z,100.00
2022-07-27T01:38:59.457Z,100.00
2022-07-27T01:44:02.751Z,100.00
2022-07-27T01:49:06.562Z,100.00
2022-07-27T01:54:11.325Z,100.00
2022-07-27T01:59:14.836Z,100.00
2022-07-27T02:04:20.608Z,100.00
2022-07-27T02:09:25.975Z,100.00
2022-07-27T02:14:29.287Z,100.00
2022-07-27T02:19:32.693Z,100.00
2022-07-27T02:24:37.957Z,100.00
2022-07-27T02:29:41.304Z,100.00
2022-07-27T02:34:45.109Z,100.00
2022-07-27T02:39:49.856Z,100.00
2022-07-27T02:44:53.364Z,100.00
2022-07-27T02:49:56.959Z,100.00
2022-07-27T02:55:01.835Z,100.00
2022-07-27T03:00:07.012Z,100.00
2022-07-27T03:05:12.710Z,100.00
2022-07-27T03:16:05.581Z,100.00
2022-07-27T03:21:09.068Z,100.00
2022-07-27T03:26:13.998Z,100.00
2022-07-27T03:31:17.437Z,100.00
2022-07-27T03:36:21.617Z,100.00
2022-07-27T03:41:26.260Z,100.00
2022-07-27T03:46:29.720Z,100.00
2022-07-27T03:51:33.114Z,100.00
2022-07-27T03:56:37.852Z,100.00
2022-07-27T04:01:41.222Z,100.00
2022-07-27T04:06:44.611Z,100.00
2022-07-27T04:11:50.945Z,100.00
2022-07-27T04:16:55.113Z,100.00
2022-07-27T04:21:58.571Z,100.00
2022-07-27T04:27:03.540Z,100.00
2022-07-27T04:32:07.834Z,100.00
2022-07-27T04:37:11.311Z,100.00
2022-07-27T04:42:16.026Z,100.00
2022-07-27T04:47:20.192Z,100.00
2022-07-27T04:52:27.025Z,100.00
2022-07-27T04:57:33.717Z,100.00
2022-07-27T05:02:40.954Z,100.00
2022-07-27T05:07:44.298Z,100.00
2022-07-27T05:12:49.571Z,100.00
2022-07-27T05:17:53.686Z,100.00
2022-07-27T05:22:57.613Z,100.00
2022-07-27T05:28:03.046Z,100.00
2022-07-27T05:33:06.582Z,100.00
2022-07-27T05:38:10.335Z,100.00
2022-07-27T05:43:15.137Z,100.00
2022-07-27T05:48:18.597Z,100.00
2022-07-27T05:53:22.015Z,100.00
2022-07-27T05:58:26.735Z,100.00
2022-07-27T06:03:30.276Z,100.00
2022-07-27T06:08:33.962Z,99.78
2022-07-27T06:13:42.486Z,93.02
2022-07-27T06:18:46.145Z,78.93
2022-07-27T06:23:49.472Z,78.63
2022-07-27T06:28:58.797Z,82.33
2022-07-27T06:34:02.296Z,85.85
2022-07-27T06:39:06.432Z,87.16
2022-07-27T06:44:11.088Z,89.60
2022-07-27T06:49:14.970Z,91.62
2022-07-27T06:54:18.530Z,94.27
2022-07-27T06:59:23.252Z,93.19
2022-07-27T07:04:26.687Z,93.11
2022-07-27T07:09:30.568Z,94.72
2022-07-27T07:14:35.304Z,93.12
2022-07-27T07:19:38.636Z,93.19
2022-07-27T07:24:42.254Z,96.46
2022-07-27T07:29:47.157Z,96.28
2022-07-27T07:34:50.847Z,95.89
2022-07-27T07:39:54.173Z,95.66
2022-07-27T07:44:58.942Z,94.74
2022-07-27T07:50:02.396Z,93.62
2022-07-27T07:55:06.563Z,91.38
2022-07-27T08:00:12.669Z,90.54
2022-07-27T08:05:16.578Z,88.93
2022-07-27T08:10:22.687Z,87.96
2022-07-27T08:15:34.968Z,88.17
2022-07-27T08:20:39.539Z,90.15
2022-07-27T08:25:42.914Z,91.11
2022-07-27T08:30:48.280Z,92.84
2022-07-27T08:35:53.016Z,92.57
2022-07-27T08:40:56.710Z,89.98
2022-07-27T08:46:01.987Z,89.38
2022-07-27T08:51:05.592Z,93.04
2022-07-27T08:56:10.148Z,93.50
2022-07-27T09:01:16.100Z,92.12
2022-07-27T09:06:44.096Z,91.84
2022-07-27T09:12:06.389Z,91.92
2022-07-27T09:17:49.455Z,90.57
2022-07-27T09:22:55.541Z,90.74
2022-07-27T09:28:00.935Z,89.14
2022-07-27T09:33:07.940Z,88.23
2022-07-27T09:38:19.189Z,87.34
2022-07-27T09:48:47.726Z,85.96
2022-07-27T09:53:51.279Z,77.30
2022-07-27T09:58:56.861Z,70.21
2022-07-27T10:04:03.673Z,71.37
2022-07-27T10:09:07.180Z,71.22
2022-07-27T10:14:10.819Z,71.63
2022-07-27T10:19:21.156Z,66.32
2022-07-27T10:24:28.989Z,63.74
2022-07-27T10:29:33.209Z,59.82
2022-07-27T10:34:40.744Z,61.03
2022-07-27T10:39:46.171Z,58.32
2022-07-27T10:45:05.057Z,57.47
2022-07-27T10:50:29.919Z,56.88
2022-07-27T10:55:46.877Z,60.47
2022-07-27T11:01:00.066Z,62.53
2022-07-27T11:06:31.344Z,62.32
2022-07-27T11:11:34.517Z,59.86
2022-07-27T11:16:54.691Z,68.32
2022-07-27T11:22:04.553Z,59.99
2022-07-27T11:27:16.350Z,55.16
2022-07-27T11:32:22.200Z,52.87
2022-07-27T11:37:26.855Z,55.94
2022-07-27T11:42:39.205Z,55.22
2022-07-27T11:47:42.679Z,56.05
2022-07-27T11:53:01.261Z,50.47
2022-07-27T11:58:05.425Z,53.22
2022-07-27T12:03:08.998Z,53.34
2022-07-27T12:08:14.444Z,50.90
2022-07-27T12:13:19.730Z,48.57
2022-07-27T12:18:23.170Z,49.87
2022-07-27T12:23:31.229Z,47.05
2022-07-27T12:28:34.592Z,48.23
2022-07-27T12:33:39.004Z,45.92
2022-07-27T12:38:45.400Z,47.29
2022-07-27T12:44:05.316Z,40.53
2022-07-27T12:49:17.200Z,40.23
2022-07-27T12:54:22.378Z,39.40
2022-07-27T12:59:25.714Z,39.81
2022-07-27T13:04:29.080Z,40.81
2022-07-27T13:10:01.720Z,35.91
2022-07-27T13:14:59.125Z,32.41
2022-07-27T13:20:02.607Z,30.42
2022-07-27T13:25:16.085Z,34.00
2022-07-27T13:30:21.419Z,38.54
2022-07-27T13:35:24.820Z,36.33
2022-07-27T13:40:29.610Z,37.97
2022-07-27T13:45:42.797Z,35.28
2022-07-27T13:50:47.005Z,30.93
2022-07-27T13:55:51.745Z,35.00
2022-07-27T14:00:55.824Z,37.39
2022-07-27T14:05:59.242Z,39.08
2022-07-27T14:11:04.362Z,41.50
2022-07-27T14:16:08.453Z,41.86
2022-07-27T14:21:12.077Z,41.95
2022-07-27T14:26:16.930Z,41.17
2022-07-27T14:31:22.164Z,40.85
2022-07-27T14:36:25.615Z,38.99
2022-07-27T14:41:31.441Z,39.11
2022-07-27T14:46:34.908Z,36.85
2022-07-27T14:51:38.312Z,34.37
2022-07-27T14:56:43.083Z,33.28
2022-07-27T15:01:46.648Z,32.82
2022-07-27T15:06:50.202Z,31.22
2022-07-27T15:11:55.054Z,29.19
2022-07-27T15:16:58.491Z,30.64
2022-07-27T15:22:01.975Z,30.98
2022-07-27T15:27:07.046Z,30.89
2022-07-27T15:32:10.596Z,31.41
2022-07-27T15:37:14.808Z,34.45
2022-07-27T15:42:19.555Z,36.85
2022-07-27T15:47:22.901Z,33.84
2022-07-27T15:52:26.223Z,38.32
2022-07-27T15:57:30.960Z,47.68
2022-07-27T16:02:34.359Z,52.72
2022-07-27T16:07:41.399Z,56.68
2022-07-27T16:12:46.473Z,57.71
2022-07-27T16:17:49.939Z,59.53
2022-07-27T16:22:53.253Z,59.98
2022-07-27T16:27:57.948Z,62.64
2022-07-27T16:33:03.438Z,64.27
2022-07-27T16:38:06.934Z,64.74
2022-07-27T16:43:11.663Z,66.66
2022-07-27T16:48:14.999Z,68.03
2022-07-27T16:53:18.359Z,68.82
2022-07-27T16:58:23.021Z,71.50
2022-07-27T17:03:27.088Z,74.88
2022-07-27T17:08:30.568Z,76.84
2022-07-27T17:13:37.100Z,75.79
2022-07-27T17:18:40.771Z,78.02
2022-07-27T17:23:45.110Z,79.36
2022-07-27T17:28:49.943Z,79.55
2022-07-27T17:33:54.150Z,79.05
2022-07-27T17:38:58.058Z,78.08
2022-07-27T17:44:02.867Z,78.18
2022-07-27T17:49:06.229Z,79.55
2022-07-27T17:54:09.711Z,80.37
2022-07-27T17:59:36.470Z,81.35
2022-07-27T18:04:39.575Z,81.52
2022-07-27T18:09:43.535Z,81.94
2022-07-27T18:15:03.023Z,82.04
2022-07-27T18:20:07.639Z,82.20
2022-07-27T18:25:11.686Z,82.46
2022-07-27T18:30:16.941Z,83.07
2022-07-27T18:35:20.481Z,82.75
2022-07-27T18:40:24.020Z,82.81
2022-07-27T18:45:34.201Z,84.22
2022-07-27T18:50:39.860Z,84.82
2022-07-27T18:55:44.957Z,85.63
2022-07-27T19:00:49.688Z,86.82
2022-07-27T19:05:54.458Z,87.28
2022-07-27T19:10:58.142Z,86.71
2022-07-27T19:16:02.854Z,87.83
2022-07-27T19:21:06.220Z,88.33
2022-07-27T19:26:10.294Z,88.02
2022-07-27T19:31:22.851Z,88.61
2022-07-27T19:36:27.749Z,88.92
2022-07-27T19:41:31.260Z,89.03
2022-07-27T19:46:36.190Z,89.45
2022-07-27T19:51:39.896Z,89.63
2022-07-27T19:56:43.260Z,90.79
2022-07-27T20:01:48.221Z,91.00
2022-07-27T20:06:51.652Z,90.75
2022-07-27T20:12:00.107Z,91.14
2022-07-27T20:17:06.189Z,92.09
2022-07-27T20:22:09.738Z,91.01
2022-07-27T20:27:13.745Z,88.62
2022-07-27T20:32:18.420Z,87.90
2022-07-27T20:37:21.835Z,86.51
2022-07-27T20:42:25.499Z,85.85
2022-07-27T20:47:34.565Z,84.88
2022-07-27T20:52:38.457Z,83.04
2022-07-27T20:57:42.026Z,80.69
2022-07-27T21:02:46.979Z,79.36
2022-07-27T21:07:50.425Z,79.89
2022-07-27T21:12:53.767Z,79.63
2022-07-27T21:17:58.511Z,79.87
2022-07-27T21:23:19.555Z,80.24
2022-07-27T21:28:24.756Z,79.67
2022-07-27T21:33:30.189Z,80.22
2022-07-27T21:38:33.591Z,80.07
2022-07-27T21:43:36.892Z,79.59
2022-07-27T21:48:42.035Z,79.22
2022-07-27T21:53:45.902Z,79.12
2022-07-27T21:58:49.438Z,78.91
2022-07-27T22:03:54.227Z,78.42
2022-07-27T22:08:57.585Z,78.95
2022-07-27T22:14:00.993Z,79.83
2022-07-27T22:19:06.018Z,79.17
2022-07-27T22:24:09.562Z,78.36
2022-07-27T22:29:13.230Z,78.33
2022-07-27T22:34:18.108Z,77.80
2022-07-27T22:39:21.502Z,77.93
2022-07-27T22:44:25.065Z,78.15
2022-07-27T22:49:30.083Z,77.84
2022-07-27T22:54:33.944Z,78.14
2022-07-27T22:59:38.271Z,78.79
2022-07-27T23:04:43.015Z,77.64
2022-07-27T23:09:46.312Z,78.45
2022-07-27T23:14:50.330Z,78.29
2022-07-27T23:19:55.045Z,76.56
2022-07-27T23:24:58.329Z,76.31
2022-07-27T23:30:01.615Z,76.29
2022-07-27T23:35:07.310Z,76.66
2022-07-27T23:40:12.066Z,77.58
2022-07-27T23:45:15.397Z,77.89
2022-07-27T23:50:20.197Z,78.60
2022-07-27T23:55:23.544Z,78.49
